• Join FlightAware (Why Join?)
  • Login
  • US Flag GB Flag 
17:03 EST


 

Airport Tracker/Info


-or-


 

Live Flight TrackerFlight Track Log ✈ N59CW ✈ 27-Sep-2013 ✈ KPIE - KPIE

Flight Track Log - Related Links

Times and Time Zones

All times are in EDT time to prevent confusion due to time zone crossing. See the N59CW flight status page for this flight to view local times or setup timezone preferences in your user account.

Time Position Orientation Groundspeed Altitude Reporting Facility
EDT Latitude Longitude Course Direction KTS MPH feet Rate Location/Type
12:39 27.7667 -82.6333 330° Northwest 60 69 200  Level Tampa TRACON
12:41 27.9167 -82.7333 330° Northwest 98 113 1,500 420 Climbing Tampa TRACON
12:42 27.9167 -82.7667 270° West 110 127 1,600 360 Climbing Tampa TRACON
12:43 27.9000 -82.7833 221° Southwest 123 142 2,200 540 Climbing Tampa TRACON
12:44 27.8667 -82.7833 180° South 104 120 2,800 420 Climbing Tampa TRACON
12:45 27.8333 -82.7833 180° South 123 142 3,100  Climbing Tampa TRACON
12:46 27.8000 -82.7833 180° South 123 142 2,900 -420 Descending Tampa TRACON
12:47 27.7667 -82.7833 180° South 122 140 2,300 -420 Descending Tampa TRACON
12:48 27.7333 -82.7833 180° South 107 123 2,100 -120 Descending Tampa TRACON
12:49 27.7167 -82.7667 138° Southeast 97 112 2,100 -60 Level Tampa TRACON
12:50 27.7167 -82.7333 90° East 93 107 2,000 -120 Descending Tampa TRACON
12:51 27.7167 -82.7000 90° East 104 120 1,900 -60 Descending Tampa TRACON
12:52 27.7167 -82.6833 90° East 89 102 1,900  Level Tampa TRACON
12:53 27.7333 -82.6667 42° Northeast 83 96 1,900  Level Tampa TRACON
12:54 27.7667 -82.6667 360° North 87 100 1,900 60 Level Tampa TRACON
12:55 27.7833 -82.6667 360° North 90 104 2,100 -180 Climbing Tampa TRACON
12:56 27.8000 -82.6667 360° North 90 104 1,600 -420 Descending Tampa TRACON
12:57 27.8333 -82.6833 336° Northwest 76 87 1,300 -360 Descending Tampa TRACON
12:58 27.8500 -82.6833 360° North 81 93 900 -420 Descending Tampa TRACON
12:59 27.8667 -82.6833 360° North 84 97 600 -300 Descending Tampa TRACON
13:00 27.9000 -82.6833 360° North 83 96 300 180 Descending Tampa TRACON
13:01 27.9167 -82.7000 319° Northwest 123 142 1,000 840 Climbing Tampa TRACON
13:02 27.9000 -82.7333 241° Southwest 108 124 1,900 780 Climbing Tampa TRACON
13:03 27.9000 -82.7667 270° West 98 113 2,600 480 Climbing Tampa TRACON
13:04 27.9000 -82.8000 270° West 102 117 2,900 180 Climbing Tampa TRACON
13:05 27.9000 -82.8333 270° West 114 131 3,000 60 Climbing Tampa TRACON
13:06 27.8833 -82.8667 241° Southwest 122 140 3,100  Climbing Tampa TRACON
13:07 27.9000 -82.8833 319° Northwest 82 94 3,100  Level Tampa TRACON
13:08 27.9167 -82.8500 60° Northeast 102 117 3,100 -60 Level Tampa TRACON
13:09 27.9000 -82.8167 119° Southeast 124 143 3,000  Descending Tampa TRACON
13:10 27.8833 -82.8333 221° Southwest 120 138 3,100 -60 Climbing Tampa TRACON
13:11 27.8667 -82.8500 221° Southwest 123 142 2,900 -120 Descending Tampa TRACON
13:12 27.8333 -82.8667 204° Southwest 111 128 2,900  Level Tampa TRACON
13:13 27.8000 -82.9000 221° Southwest 115 132 2,900  Level Tampa TRACON
13:14 27.7833 -82.9000 180° South 111 128 3,000  Climbing Tampa TRACON
13:15 27.7500 -82.9000 180° South 114 131 3,000 -60 Level Tampa TRACON
13:16 27.7333 -82.8833 138° Southeast 102 117 2,900 -300 Descending Tampa TRACON
13:17 27.7167 -82.8500 119° Southeast 99 114 2,400 -540 Descending Tampa TRACON